Terminal Aerodrome Forecast
Issued by NWS

Home | Current Version | Previous Version | Text Only | Print | Product List | Glossary On
Versions: 1 2 3 4 5 6 7 8 9 10 11 12 13 14
000
FTUS42 TJSJ 300540
TAFJMZ
TAF
TJMZ 300540Z 3006/3106 06005KT P6SM FEW025
     FM301530 27010KT P6SM VCTS SCT025CB BKN040
     FM302330 06005KT P6SM FEW025
      AMD NOT SKED TIL 301500=

USA.gov is the U.S. government's official web portal to all federal, state and local government web resources and services.